sensor_id;sensor_type;location;lat;lon;timestamp;P1;durP1;ratioP1;P2;durP2;ratioP2
5507;SDS011;2776;51.046;6.772;2023-08-20T00:00:52;7.57;;;6.28;;
5507;SDS011;2776;51.046;6.772;2023-08-20T00:03:19;7.53;;;6.78;;
5507;SDS011;2776;51.046;6.772;2023-08-20T00:05:46;10.65;;;6.25;;
5507;SDS011;2776;51.046;6.772;2023-08-20T00:08:13;10.23;;;7.32;;
5507;SDS011;2776;51.046;6.772;2023-08-20T00:10:40;8.75;;;7.50;;
5507;SDS011;2776;51.046;6.772;2023-08-20T00:13:08;9.48;;;7.72;;
5507;SDS011;2776;51.046;6.772;2023-08-20T00:15:35;8.10;;;6.82;;
5507;SDS011;2776;51.046;6.772;2023-08-20T00:18:02;7.53;;;6.85;;
5507;SDS011;2776;51.046;6.772;2023-08-20T00:20:30;9.73;;;6.95;;
5507;SDS011;2776;51.046;6.772;2023-08-20T00:22:58;8.73;;;7.75;;
5507;SDS011;2776;51.046;6.772;2023-08-20T00:25:26;10.27;;;8.35;;
5507;SDS011;2776;51.046;6.772;2023-08-20T00:27:53;9.00;;;8.10;;
5507;SDS011;2776;51.046;6.772;2023-08-20T00:30:21;9.82;;;8.48;;
5507;SDS011;2776;51.046;6.772;2023-08-20T00:32:48;9.73;;;8.45;;
5507;SDS011;2776;51.046;6.772;2023-08-20T00:35:14;10.00;;;9.02;;
5507;SDS011;2776;51.046;6.772;2023-08-20T00:37:41;9.63;;;8.63;;
5507;SDS011;2776;51.046;6.772;2023-08-20T00:40:10;10.93;;;9.57;;
5507;SDS011;2776;51.046;6.772;2023-08-20T00:42:37;11.02;;;9.13;;
5507;SDS011;2776;51.046;6.772;2023-08-20T00:45:04;14.20;;;9.93;;
5507;SDS011;2776;51.046;6.772;2023-08-20T00:47:33;10.98;;;9.82;;
5507;SDS011;2776;51.046;6.772;2023-08-20T00:50:00;11.75;;;10.55;;
5507;SDS011;2776;51.046;6.772;2023-08-20T00:52:30;13.10;;;10.15;;
5507;SDS011;2776;51.046;6.772;2023-08-20T00:54:57;15.48;;;10.30;;
5507;SDS011;2776;51.046;6.772;2023-08-20T00:57:24;13.85;;;10.13;;
5507;SDS011;2776;51.046;6.772;2023-08-20T00:59:52;11.50;;;10.05;;
5507;SDS011;2776;51.046;6.772;2023-08-20T01:02:20;10.18;;;9.18;;
5507;SDS011;2776;51.046;6.772;2023-08-20T01:04:49;12.20;;;10.35;;
5507;SDS011;2776;51.046;6.772;2023-08-20T01:07:17;11.70;;;9.40;;
5507;SDS011;2776;51.046;6.772;2023-08-20T01:09:56;11.27;;;10.15;;
5507;SDS011;2776;51.046;6.772;2023-08-20T01:12:28;13.80;;;10.32;;
5507;SDS011;2776;51.046;6.772;2023-08-20T01:14:57;12.27;;;10.90;;
5507;SDS011;2776;51.046;6.772;2023-08-20T01:17:24;13.23;;;11.32;;
5507;SDS011;2776;51.046;6.772;2023-08-20T01:19:52;16.33;;;11.18;;
5507;SDS011;2776;51.046;6.772;2023-08-20T01:25:30;14.85;;;11.45;;
5507;SDS011;2776;51.046;6.772;2023-08-20T01:28:16;12.48;;;11.18;;
5507;SDS011;2776;51.046;6.772;2023-08-20T01:30:48;12.93;;;10.90;;
5507;SDS011;2776;51.046;6.772;2023-08-20T01:33:15;13.15;;;11.75;;
5507;SDS011;2776;51.046;6.772;2023-08-20T01:35:43;12.30;;;11.00;;
5507;SDS011;2776;51.046;6.772;2023-08-20T01:38:09;11.93;;;10.32;;
5507;SDS011;2776;51.046;6.772;2023-08-20T01:40:36;14.60;;;10.43;;
5507;SDS011;2776;51.046;6.772;2023-08-20T01:43:03;9.18;;;8.27;;
5507;SDS011;2776;51.046;6.772;2023-08-20T01:45:31;10.82;;;9.82;;
5507;SDS011;2776;51.046;6.772;2023-08-20T01:47:58;10.05;;;9.10;;
5507;SDS011;2776;51.046;6.772;2023-08-20T01:50:25;10.20;;;9.15;;
5507;SDS011;2776;51.046;6.772;2023-08-20T01:52:51;13.40;;;10.02;;
5507;SDS011;2776;51.046;6.772;2023-08-20T01:55:18;10.70;;;9.15;;
5507;SDS011;2776;51.046;6.772;2023-08-20T01:57:45;11.07;;;9.02;;
5507;SDS011;2776;51.046;6.772;2023-08-20T02:00:12;9.75;;;8.88;;
5507;SDS011;2776;51.046;6.772;2023-08-20T02:02:41;9.27;;;7.57;;
5507;SDS011;2776;51.046;6.772;2023-08-20T02:05:07;8.10;;;7.05;;
5507;SDS011;2776;51.046;6.772;2023-08-20T02:07:35;10.75;;;8.13;;
5507;SDS011;2776;51.046;6.772;2023-08-20T02:10:02;12.77;;;9.68;;
5507;SDS011;2776;51.046;6.772;2023-08-20T02:12:29;11.07;;;9.30;;
5507;SDS011;2776;51.046;6.772;2023-08-20T02:14:56;10.77;;;9.25;;
5507;SDS011;2776;51.046;6.772;2023-08-20T02:17:23;10.43;;;9.48;;
5507;SDS011;2776;51.046;6.772;2023-08-20T02:19:51;12.50;;;8.90;;
5507;SDS011;2776;51.046;6.772;2023-08-20T02:22:18;12.93;;;9.07;;
5507;SDS011;2776;51.046;6.772;2023-08-20T02:24:45;11.73;;;9.35;;
5507;SDS011;2776;51.046;6.772;2023-08-20T02:27:12;11.05;;;9.95;;
5507;SDS011;2776;51.046;6.772;2023-08-20T02:29:39;11.68;;;8.85;;
5507;SDS011;2776;51.046;6.772;2023-08-20T02:32:06;10.68;;;9.63;;
5507;SDS011;2776;51.046;6.772;2023-08-20T02:34:32;12.25;;;10.27;;
5507;SDS011;2776;51.046;6.772;2023-08-20T02:37:00;11.65;;;10.10;;
5507;SDS011;2776;51.046;6.772;2023-08-20T02:39:27;11.77;;;10.32;;
5507;SDS011;2776;51.046;6.772;2023-08-20T02:41:54;12.52;;;9.68;;
5507;SDS011;2776;51.046;6.772;2023-08-20T02:44:20;12.82;;;10.32;;
5507;SDS011;2776;51.046;6.772;2023-08-20T02:46:47;16.83;;;11.65;;
5507;SDS011;2776;51.046;6.772;2023-08-20T02:49:14;15.40;;;12.45;;
5507;SDS011;2776;51.046;6.772;2023-08-20T02:51:42;15.57;;;12.60;;
5507;SDS011;2776;51.046;6.772;2023-08-20T02:54:10;13.50;;;11.20;;
5507;SDS011;2776;51.046;6.772;2023-08-20T02:56:37;16.15;;;11.27;;
5507;SDS011;2776;51.046;6.772;2023-08-20T02:59:04;11.75;;;9.80;;
5507;SDS011;2776;51.046;6.772;2023-08-20T03:01:30;11.15;;;9.90;;
5507;SDS011;2776;51.046;6.772;2023-08-20T03:03:58;11.05;;;9.73;;
5507;SDS011;2776;51.046;6.772;2023-08-20T03:06:24;13.52;;;11.50;;
5507;SDS011;2776;51.046;6.772;2023-08-20T03:08:51;15.35;;;12.10;;
5507;SDS011;2776;51.046;6.772;2023-08-20T03:11:20;13.52;;;11.93;;
5507;SDS011;2776;51.046;6.772;2023-08-20T03:13:47;14.68;;;11.20;;
5507;SDS011;2776;51.046;6.772;2023-08-20T03:16:14;13.05;;;11.57;;
5507;SDS011;2776;51.046;6.772;2023-08-20T03:18:40;18.38;;;12.80;;
5507;SDS011;2776;51.046;6.772;2023-08-20T03:21:07;13.40;;;12.00;;
5507;SDS011;2776;51.046;6.772;2023-08-20T03:23:34;16.33;;;11.95;;
5507;SDS011;2776;51.046;6.772;2023-08-20T03:26:00;17.30;;;14.35;;
5507;SDS011;2776;51.046;6.772;2023-08-20T03:28:29;16.65;;;14.82;;
5507;SDS011;2776;51.046;6.772;2023-08-20T03:30:58;22.20;;;16.17;;
5507;SDS011;2776;51.046;6.772;2023-08-20T03:33:26;19.48;;;16.35;;
5507;SDS011;2776;51.046;6.772;2023-08-20T03:35:53;20.10;;;16.08;;
5507;SDS011;2776;51.046;6.772;2023-08-20T03:38:20;19.83;;;16.38;;
5507;SDS011;2776;51.046;6.772;2023-08-20T03:40:47;20.45;;;16.55;;
5507;SDS011;2776;51.046;6.772;2023-08-20T03:43:14;19.27;;;16.90;;
5507;SDS011;2776;51.046;6.772;2023-08-20T03:45:42;19.63;;;16.58;;
5507;SDS011;2776;51.046;6.772;2023-08-20T03:48:08;18.52;;;15.93;;
5507;SDS011;2776;51.046;6.772;2023-08-20T03:50:35;19.90;;;15.68;;
5507;SDS011;2776;51.046;6.772;2023-08-20T03:53:03;20.42;;;15.38;;
5507;SDS011;2776;51.046;6.772;2023-08-20T03:55:29;20.42;;;15.40;;
5507;SDS011;2776;51.046;6.772;2023-08-20T03:57:56;18.33;;;15.13;;
5507;SDS011;2776;51.046;6.772;2023-08-20T04:00:23;19.70;;;14.93;;
5507;SDS011;2776;51.046;6.772;2023-08-20T04:02:51;17.00;;;15.15;;
5507;SDS011;2776;51.046;6.772;2023-08-20T04:05:18;16.65;;;14.80;;
5507;SDS011;2776;51.046;6.772;2023-08-20T04:07:44;16.10;;;14.38;;
5507;SDS011;2776;51.046;6.772;2023-08-20T04:10:12;17.13;;;14.25;;
5507;SDS011;2776;51.046;6.772;2023-08-20T04:12:38;18.65;;;15.57;;
5507;SDS011;2776;51.046;6.772;2023-08-20T04:15:05;18.73;;;14.93;;
5507;SDS011;2776;51.046;6.772;2023-08-20T04:17:32;17.55;;;14.05;;
5507;SDS011;2776;51.046;6.772;2023-08-20T04:20:00;17.02;;;13.80;;
5507;SDS011;2776;51.046;6.772;2023-08-20T04:22:31;17.77;;;14.63;;
5507;SDS011;2776;51.046;6.772;2023-08-20T04:24:58;17.17;;;14.63;;
5507;SDS011;2776;51.046;6.772;2023-08-20T04:27:24;18.10;;;13.85;;
5507;SDS011;2776;51.046;6.772;2023-08-20T04:29:51;18.90;;;14.73;;
5507;SDS011;2776;51.046;6.772;2023-08-20T04:32:18;20.05;;;14.98;;
5507;SDS011;2776;51.046;6.772;2023-08-20T04:34:45;18.20;;;15.10;;
5507;SDS011;2776;51.046;6.772;2023-08-20T04:37:15;19.48;;;15.43;;
5507;SDS011;2776;51.046;6.772;2023-08-20T04:39:42;17.65;;;15.15;;
5507;SDS011;2776;51.046;6.772;2023-08-20T04:42:09;17.95;;;14.77;;
5507;SDS011;2776;51.046;6.772;2023-08-20T04:44:35;19.10;;;15.35;;
5507;SDS011;2776;51.046;6.772;2023-08-20T04:47:02;17.15;;;15.25;;
5507;SDS011;2776;51.046;6.772;2023-08-20T04:49:29;21.10;;;15.25;;
5507;SDS011;2776;51.046;6.772;2023-08-20T04:51:56;16.92;;;14.00;;
5507;SDS011;2776;51.046;6.772;2023-08-20T04:54:24;21.25;;;14.82;;
5507;SDS011;2776;51.046;6.772;2023-08-20T04:56:51;19.20;;;14.50;;
5507;SDS011;2776;51.046;6.772;2023-08-20T04:59:17;20.42;;;15.85;;
5507;SDS011;2776;51.046;6.772;2023-08-20T05:01:44;19.10;;;15.57;;
5507;SDS011;2776;51.046;6.772;2023-08-20T05:04:11;18.02;;;15.50;;
5507;SDS011;2776;51.046;6.772;2023-08-20T05:06:37;19.85;;;15.35;;
5507;SDS011;2776;51.046;6.772;2023-08-20T05:09:04;18.90;;;14.80;;
5507;SDS011;2776;51.046;6.772;2023-08-20T05:11:32;17.75;;;13.93;;
5507;SDS011;2776;51.046;6.772;2023-08-20T05:13:59;15.93;;;13.98;;
5507;SDS011;2776;51.046;6.772;2023-08-20T05:16:26;19.63;;;14.45;;
5507;SDS011;2776;51.046;6.772;2023-08-20T05:18:53;17.13;;;14.90;;
5507;SDS011;2776;51.046;6.772;2023-08-20T05:21:20;16.13;;;13.70;;
5507;SDS011;2776;51.046;6.772;2023-08-20T05:23:46;15.55;;;13.15;;
5507;SDS011;2776;51.046;6.772;2023-08-20T05:26:13;17.50;;;15.65;;
5507;SDS011;2776;51.046;6.772;2023-08-20T05:28:41;18.33;;;14.20;;
5507;SDS011;2776;51.046;6.772;2023-08-20T05:31:08;14.98;;;13.43;;
5507;SDS011;2776;51.046;6.772;2023-08-20T05:33:35;19.10;;;14.00;;
5507;SDS011;2776;51.046;6.772;2023-08-20T05:36:02;18.20;;;13.43;;
5507;SDS011;2776;51.046;6.772;2023-08-20T05:38:29;14.68;;;13.15;;
5507;SDS011;2776;51.046;6.772;2023-08-20T05:40:56;16.02;;;13.05;;
5507;SDS011;2776;51.046;6.772;2023-08-20T05:43:23;13.82;;;12.38;;
5507;SDS011;2776;51.046;6.772;2023-08-20T05:45:51;14.82;;;12.70;;
5507;SDS011;2776;51.046;6.772;2023-08-20T05:48:17;18.30;;;13.57;;
5507;SDS011;2776;51.046;6.772;2023-08-20T05:50:44;16.75;;;12.73;;
5507;SDS011;2776;51.046;6.772;2023-08-20T05:53:11;13.98;;;12.57;;
5507;SDS011;2776;51.046;6.772;2023-08-20T05:55:38;15.52;;;11.88;;
5507;SDS011;2776;51.046;6.772;2023-08-20T05:58:05;14.00;;;11.52;;
5507;SDS011;2776;51.046;6.772;2023-08-20T06:00:32;19.50;;;13.48;;
5507;SDS011;2776;51.046;6.772;2023-08-20T06:03:00;17.52;;;13.15;;
5507;SDS011;2776;51.046;6.772;2023-08-20T06:05:27;14.38;;;12.82;;
5507;SDS011;2776;51.046;6.772;2023-08-20T06:07:53;20.77;;;14.82;;
5507;SDS011;2776;51.046;6.772;2023-08-20T06:10:20;14.07;;;12.57;;
5507;SDS011;2776;51.046;6.772;2023-08-20T06:12:47;15.50;;;12.85;;
5507;SDS011;2776;51.046;6.772;2023-08-20T06:15:14;15.98;;;13.35;;
5507;SDS011;2776;51.046;6.772;2023-08-20T06:17:41;16.45;;;12.90;;
5507;SDS011;2776;51.046;6.772;2023-08-20T06:20:10;17.92;;;13.65;;
5507;SDS011;2776;51.046;6.772;2023-08-20T06:22:37;15.52;;;13.27;;
5507;SDS011;2776;51.046;6.772;2023-08-20T06:25:04;15.45;;;13.82;;
5507;SDS011;2776;51.046;6.772;2023-08-20T06:27:31;13.70;;;11.88;;
5507;SDS011;2776;51.046;6.772;2023-08-20T06:29:58;14.52;;;13.02;;
5507;SDS011;2776;51.046;6.772;2023-08-20T06:32:25;14.65;;;12.68;;
5507;SDS011;2776;51.046;6.772;2023-08-20T06:34:52;17.17;;;12.27;;
5507;SDS011;2776;51.046;6.772;2023-08-20T06:37:20;18.02;;;12.00;;
5507;SDS011;2776;51.046;6.772;2023-08-20T06:39:47;15.88;;;11.77;;
5507;SDS011;2776;51.046;6.772;2023-08-20T06:42:14;14.43;;;11.70;;
5507;SDS011;2776;51.046;6.772;2023-08-20T06:44:40;13.38;;;11.80;;
5507;SDS011;2776;51.046;6.772;2023-08-20T06:47:07;14.30;;;12.30;;
5507;SDS011;2776;51.046;6.772;2023-08-20T06:49:34;15.40;;;11.15;;
5507;SDS011;2776;51.046;6.772;2023-08-20T06:52:00;13.77;;;12.07;;
5507;SDS011;2776;51.046;6.772;2023-08-20T06:54:29;14.02;;;11.90;;
5507;SDS011;2776;51.046;6.772;2023-08-20T06:56:55;21.20;;;13.55;;
5507;SDS011;2776;51.046;6.772;2023-08-20T06:59:22;17.45;;;13.63;;
5507;SDS011;2776;51.046;6.772;2023-08-20T07:01:49;17.75;;;12.93;;
5507;SDS011;2776;51.046;6.772;2023-08-20T07:04:16;14.65;;;12.35;;
5507;SDS011;2776;51.046;6.772;2023-08-20T07:06:43;17.50;;;13.02;;
5507;SDS011;2776;51.046;6.772;2023-08-20T07:09:10;16.70;;;12.70;;
5507;SDS011;2776;51.046;6.772;2023-08-20T07:11:38;14.52;;;12.88;;
5507;SDS011;2776;51.046;6.772;2023-08-20T07:14:04;13.88;;;12.10;;
5507;SDS011;2776;51.046;6.772;2023-08-20T07:16:31;16.35;;;13.02;;
5507;SDS011;2776;51.046;6.772;2023-08-20T07:18:58;15.35;;;12.55;;
5507;SDS011;2776;51.046;6.772;2023-08-20T07:21:25;16.95;;;11.85;;
5507;SDS011;2776;51.046;6.772;2023-08-20T07:23:52;16.77;;;12.73;;
5507;SDS011;2776;51.046;6.772;2023-08-20T07:26:18;14.63;;;13.05;;
5507;SDS011;2776;51.046;6.772;2023-08-20T07:28:46;19.42;;;14.00;;
5507;SDS011;2776;51.046;6.772;2023-08-20T07:31:22;16.60;;;14.05;;
5507;SDS011;2776;51.046;6.772;2023-08-20T07:33:49;18.73;;;14.40;;
5507;SDS011;2776;51.046;6.772;2023-08-20T07:36:17;16.80;;;14.50;;
5507;SDS011;2776;51.046;6.772;2023-08-20T07:38:44;16.92;;;13.27;;
5507;SDS011;2776;51.046;6.772;2023-08-20T07:41:11;17.15;;;15.00;;
5507;SDS011;2776;51.046;6.772;2023-08-20T07:43:38;17.48;;;14.93;;
5507;SDS011;2776;51.046;6.772;2023-08-20T07:46:07;18.13;;;14.18;;
5507;SDS011;2776;51.046;6.772;2023-08-20T07:48:34;19.13;;;15.32;;
5507;SDS011;2776;51.046;6.772;2023-08-20T07:51:01;19.13;;;15.48;;
5507;SDS011;2776;51.046;6.772;2023-08-20T07:53:28;20.73;;;17.85;;
5507;SDS011;2776;51.046;6.772;2023-08-20T07:55:55;20.58;;;16.25;;
5507;SDS011;2776;51.046;6.772;2023-08-20T07:58:22;18.60;;;16.67;;
5507;SDS011;2776;51.046;6.772;2023-08-20T08:00:49;39.45;;;35.25;;
5507;SDS011;2776;51.046;6.772;2023-08-20T08:03:17;20.70;;;16.13;;
5507;SDS011;2776;51.046;6.772;2023-08-20T08:05:46;19.80;;;14.95;;
5507;SDS011;2776;51.046;6.772;2023-08-20T08:08:13;19.48;;;17.02;;
5507;SDS011;2776;51.046;6.772;2023-08-20T08:10:40;19.88;;;16.88;;
5507;SDS011;2776;51.046;6.772;2023-08-20T08:13:09;20.73;;;15.95;;
5507;SDS011;2776;51.046;6.772;2023-08-20T08:15:36;17.08;;;15.27;;
5507;SDS011;2776;51.046;6.772;2023-08-20T08:18:03;17.15;;;14.98;;
5507;SDS011;2776;51.046;6.772;2023-08-20T08:20:31;17.13;;;14.02;;
5507;SDS011;2776;51.046;6.772;2023-08-20T08:22:58;18.45;;;14.98;;
5507;SDS011;2776;51.046;6.772;2023-08-20T08:25:25;15.60;;;13.77;;
5507;SDS011;2776;51.046;6.772;2023-08-20T08:27:52;15.25;;;12.52;;
5507;SDS011;2776;51.046;6.772;2023-08-20T08:30:18;13.52;;;12.13;;
5507;SDS011;2776;51.046;6.772;2023-08-20T08:32:45;14.02;;;11.63;;
5507;SDS011;2776;51.046;6.772;2023-08-20T08:35:12;14.55;;;12.88;;
5507;SDS011;2776;51.046;6.772;2023-08-20T08:37:40;14.63;;;12.73;;
5507;SDS011;2776;51.046;6.772;2023-08-20T08:40:08;14.70;;;11.50;;
5507;SDS011;2776;51.046;6.772;2023-08-20T08:42:35;12.52;;;11.10;;
5507;SDS011;2776;51.046;6.772;2023-08-20T08:45:02;16.02;;;12.60;;
5507;SDS011;2776;51.046;6.772;2023-08-20T08:47:29;13.60;;;11.35;;
5507;SDS011;2776;51.046;6.772;2023-08-20T08:49:56;13.30;;;11.95;;
5507;SDS011;2776;51.046;6.772;2023-08-20T08:52:23;17.38;;;15.68;;
5507;SDS011;2776;51.046;6.772;2023-08-20T08:54:52;13.50;;;11.68;;
5507;SDS011;2776;51.046;6.772;2023-08-20T08:57:19;20.67;;;18.65;;
5507;SDS011;2776;51.046;6.772;2023-08-20T08:59:45;15.50;;;13.60;;
5507;SDS011;2776;51.046;6.772;2023-08-20T09:02:12;12.50;;;11.13;;
5507;SDS011;2776;51.046;6.772;2023-08-20T09:04:39;12.32;;;10.63;;
5507;SDS011;2776;51.046;6.772;2023-08-20T09:07:10;16.67;;;9.88;;
5507;SDS011;2776;51.046;6.772;2023-08-20T09:09:41;11.65;;;10.20;;
5507;SDS011;2776;51.046;6.772;2023-08-20T09:12:13;10.02;;;9.07;;
5507;SDS011;2776;51.046;6.772;2023-08-20T09:14:43;12.32;;;11.13;;
5507;SDS011;2776;51.046;6.772;2023-08-20T09:17:11;11.32;;;9.70;;
5507;SDS011;2776;51.046;6.772;2023-08-20T09:19:38;11.23;;;8.63;;
5507;SDS011;2776;51.046;6.772;2023-08-20T09:22:05;10.65;;;9.60;;
5507;SDS011;2776;51.046;6.772;2023-08-20T09:24:33;9.70;;;8.70;;
5507;SDS011;2776;51.046;6.772;2023-08-20T09:27:02;10.13;;;8.45;;
5507;SDS011;2776;51.046;6.772;2023-08-20T09:29:32;8.30;;;7.50;;
5507;SDS011;2776;51.046;6.772;2023-08-20T09:32:00;8.80;;;7.90;;
5507;SDS011;2776;51.046;6.772;2023-08-20T09:34:35;8.80;;;6.88;;
5507;SDS011;2776;51.046;6.772;2023-08-20T09:37:03;9.48;;;7.60;;
5507;SDS011;2776;51.046;6.772;2023-08-20T09:39:33;8.45;;;6.82;;
5507;SDS011;2776;51.046;6.772;2023-08-20T09:42:00;7.45;;;6.75;;
5507;SDS011;2776;51.046;6.772;2023-08-20T09:44:28;9.00;;;6.05;;
5507;SDS011;2776;51.046;6.772;2023-08-20T09:47:01;7.50;;;5.68;;
5507;SDS011;2776;51.046;6.772;2023-08-20T09:49:29;6.32;;;5.57;;
5507;SDS011;2776;51.046;6.772;2023-08-20T09:52:02;6.03;;;4.85;;
5507;SDS011;2776;51.046;6.772;2023-08-20T09:54:33;5.97;;;5.18;;
5507;SDS011;2776;51.046;6.772;2023-08-20T09:57:06;8.48;;;5.25;;
5507;SDS011;2776;51.046;6.772;2023-08-20T09:59:38;7.53;;;5.38;;
5507;SDS011;2776;51.046;6.772;2023-08-20T10:02:07;7.38;;;6.65;;
5507;SDS011;2776;51.046;6.772;2023-08-20T10:04:38;8.43;;;6.20;;
5507;SDS011;2776;51.046;6.772;2023-08-20T10:07:05;8.32;;;6.72;;
5507;SDS011;2776;51.046;6.772;2023-08-20T10:09:32;6.13;;;5.50;;
5507;SDS011;2776;51.046;6.772;2023-08-20T10:11:59;7.28;;;6.55;;
5507;SDS011;2776;51.046;6.772;2023-08-20T10:14:27;10.38;;;6.93;;
5507;SDS011;2776;51.046;6.772;2023-08-20T10:16:55;7.28;;;6.57;;
5507;SDS011;2776;51.046;6.772;2023-08-20T10:19:22;6.95;;;6.32;;
5507;SDS011;2776;51.046;6.772;2023-08-20T10:21:52;7.65;;;6.20;;
5507;SDS011;2776;51.046;6.772;2023-08-20T10:24:19;7.68;;;6.75;;
5507;SDS011;2776;51.046;6.772;2023-08-20T10:26:46;7.22;;;6.13;;
5507;SDS011;2776;51.046;6.772;2023-08-20T10:32:04;9.55;;;6.60;;
5507;SDS011;2776;51.046;6.772;2023-08-20T10:34:32;9.98;;;6.45;;
5507;SDS011;2776;51.046;6.772;2023-08-20T10:37:01;7.22;;;6.47;;
5507;SDS011;2776;51.046;6.772;2023-08-20T10:39:29;7.47;;;6.30;;
5507;SDS011;2776;51.046;6.772;2023-08-20T10:45:01;6.93;;;6.20;;
5507;SDS011;2776;51.046;6.772;2023-08-20T10:47:40;7.22;;;6.55;;
5507;SDS011;2776;51.046;6.772;2023-08-20T10:50:08;7.45;;;6.30;;
5507;SDS011;2776;51.046;6.772;2023-08-20T10:52:38;7.60;;;6.80;;
5507;SDS011;2776;51.046;6.772;2023-08-20T10:55:06;7.43;;;6.68;;
5507;SDS011;2776;51.046;6.772;2023-08-20T10:57:34;6.18;;;5.53;;
5507;SDS011;2776;51.046;6.772;2023-08-20T11:00:02;7.70;;;6.82;;
5507;SDS011;2776;51.046;6.772;2023-08-20T11:02:37;7.53;;;6.32;;
5507;SDS011;2776;51.046;6.772;2023-08-20T11:05:09;8.38;;;6.85;;
5507;SDS011;2776;51.046;6.772;2023-08-20T11:07:42;6.88;;;6.15;;
5507;SDS011;2776;51.046;6.772;2023-08-20T11:10:11;9.95;;;6.50;;
5507;SDS011;2776;51.046;6.772;2023-08-20T11:12:39;6.65;;;5.30;;
5507;SDS011;2776;51.046;6.772;2023-08-20T11:15:07;10.45;;;6.28;;
5507;SDS011;2776;51.046;6.772;2023-08-20T11:17:41;7.03;;;5.97;;
5507;SDS011;2776;51.046;6.772;2023-08-20T11:20:08;5.70;;;5.10;;
5507;SDS011;2776;51.046;6.772;2023-08-20T11:22:37;5.97;;;5.38;;
5507;SDS011;2776;51.046;6.772;2023-08-20T11:25:05;5.95;;;5.43;;
5507;SDS011;2776;51.046;6.772;2023-08-20T11:27:35;7.03;;;6.43;;
5507;SDS011;2776;51.046;6.772;2023-08-20T11:30:03;7.30;;;6.18;;
5507;SDS011;2776;51.046;6.772;2023-08-20T11:32:30;7.65;;;6.10;;
5507;SDS011;2776;51.046;6.772;2023-08-20T11:34:58;6.22;;;5.57;;
5507;SDS011;2776;51.046;6.772;2023-08-20T11:37:25;6.80;;;6.00;;
5507;SDS011;2776;51.046;6.772;2023-08-20T11:39:53;5.90;;;5.35;;
5507;SDS011;2776;51.046;6.772;2023-08-20T11:42:20;5.90;;;5.38;;
5507;SDS011;2776;51.046;6.772;2023-08-20T11:44:47;6.55;;;5.60;;
5507;SDS011;2776;51.046;6.772;2023-08-20T11:47:14;6.05;;;5.45;;
5507;SDS011;2776;51.046;6.772;2023-08-20T11:49:41;5.82;;;5.20;;
5507;SDS011;2776;51.046;6.772;2023-08-20T11:52:09;6.40;;;5.30;;
5507;SDS011;2776;51.046;6.772;2023-08-20T11:54:38;6.15;;;5.55;;
5507;SDS011;2776;51.046;6.772;2023-08-20T11:57:06;5.68;;;5.18;;
5507;SDS011;2776;51.046;6.772;2023-08-20T11:59:33;6.45;;;5.57;;
5507;SDS011;2776;51.046;6.772;2023-08-20T12:02:01;5.60;;;5.10;;
5507;SDS011;2776;51.046;6.772;2023-08-20T12:04:29;5.95;;;5.35;;
5507;SDS011;2776;51.046;6.772;2023-08-20T12:07:03;6.53;;;5.22;;
5507;SDS011;2776;51.046;6.772;2023-08-20T12:09:32;4.78;;;4.38;;
5507;SDS011;2776;51.046;6.772;2023-08-20T12:11:59;5.85;;;5.20;;
5507;SDS011;2776;51.046;6.772;2023-08-20T12:14:27;8.00;;;5.20;;
5507;SDS011;2776;51.046;6.772;2023-08-20T12:16:54;5.03;;;4.53;;
5507;SDS011;2776;51.046;6.772;2023-08-20T12:19:21;5.40;;;4.90;;
5507;SDS011;2776;51.046;6.772;2023-08-20T12:21:48;7.25;;;6.55;;
5507;SDS011;2776;51.046;6.772;2023-08-20T12:24:15;6.80;;;5.10;;
5507;SDS011;2776;51.046;6.772;2023-08-20T12:26:45;5.50;;;5.03;;
5507;SDS011;2776;51.046;6.772;2023-08-20T12:29:12;5.20;;;4.80;;
5507;SDS011;2776;51.046;6.772;2023-08-20T12:31:39;5.03;;;4.57;;
5507;SDS011;2776;51.046;6.772;2023-08-20T12:34:06;5.50;;;4.63;;
5507;SDS011;2776;51.046;6.772;2023-08-20T12:36:34;4.43;;;4.03;;
5507;SDS011;2776;51.046;6.772;2023-08-20T12:39:00;8.55;;;7.75;;
5507;SDS011;2776;51.046;6.772;2023-08-20T12:41:28;5.13;;;4.35;;
5507;SDS011;2776;51.046;6.772;2023-08-20T12:43:56;5.85;;;4.63;;
5507;SDS011;2776;51.046;6.772;2023-08-20T12:46:23;6.10;;;4.30;;
5507;SDS011;2776;51.046;6.772;2023-08-20T12:48:50;6.50;;;5.18;;
5507;SDS011;2776;51.046;6.772;2023-08-20T12:51:17;5.45;;;4.55;;
5507;SDS011;2776;51.046;6.772;2023-08-20T12:53:44;5.15;;;4.38;;
5507;SDS011;2776;51.046;6.772;2023-08-20T12:56:11;5.45;;;4.32;;
5507;SDS011;2776;51.046;6.772;2023-08-20T12:58:38;4.90;;;4.50;;
5507;SDS011;2776;51.046;6.772;2023-08-20T13:01:06;4.80;;;4.40;;
5507;SDS011;2776;51.046;6.772;2023-08-20T13:03:34;4.93;;;4.40;;
5507;SDS011;2776;51.046;6.772;2023-08-20T13:06:02;6.55;;;4.50;;
5507;SDS011;2776;51.046;6.772;2023-08-20T13:08:30;5.45;;;4.75;;
5507;SDS011;2776;51.046;6.772;2023-08-20T13:10:57;5.70;;;5.00;;
5507;SDS011;2776;51.046;6.772;2023-08-20T13:13:24;5.18;;;4.57;;
5507;SDS011;2776;51.046;6.772;2023-08-20T13:15:52;4.85;;;4.45;;
5507;SDS011;2776;51.046;6.772;2023-08-20T13:18:21;8.35;;;5.20;;
5507;SDS011;2776;51.046;6.772;2023-08-20T13:20:50;6.93;;;4.18;;
5507;SDS011;2776;51.046;6.772;2023-08-20T13:23:17;6.85;;;4.68;;
5507;SDS011;2776;51.046;6.772;2023-08-20T13:25:44;5.75;;;4.53;;
5507;SDS011;2776;51.046;6.772;2023-08-20T13:28:11;6.63;;;5.10;;
5507;SDS011;2776;51.046;6.772;2023-08-20T13:30:38;4.85;;;4.35;;
5507;SDS011;2776;51.046;6.772;2023-08-20T13:33:05;7.20;;;4.38;;
5507;SDS011;2776;51.046;6.772;2023-08-20T13:35:33;5.15;;;4.38;;
5507;SDS011;2776;51.046;6.772;2023-08-20T13:38:00;5.88;;;4.70;;
5507;SDS011;2776;51.046;6.772;2023-08-20T13:40:27;8.00;;;4.90;;
5507;SDS011;2776;51.046;6.772;2023-08-20T13:42:54;5.38;;;4.78;;
5507;SDS011;2776;51.046;6.772;2023-08-20T13:45:21;7.55;;;4.75;;
5507;SDS011;2776;51.046;6.772;2023-08-20T13:47:48;5.20;;;4.70;;
5507;SDS011;2776;51.046;6.772;2023-08-20T13:50:14;6.18;;;5.00;;
5507;SDS011;2776;51.046;6.772;2023-08-20T13:52:42;4.90;;;4.50;;
5507;SDS011;2776;51.046;6.772;2023-08-20T13:55:09;8.02;;;5.03;;
5507;SDS011;2776;51.046;6.772;2023-08-20T13:57:37;5.60;;;4.80;;
5507;SDS011;2776;51.046;6.772;2023-08-20T14:00:04;5.18;;;4.28;;
5507;SDS011;2776;51.046;6.772;2023-08-20T14:02:36;6.10;;;4.50;;
5507;SDS011;2776;51.046;6.772;2023-08-20T14:05:03;5.68;;;4.40;;
5507;SDS011;2776;51.046;6.772;2023-08-20T14:07:31;7.20;;;4.72;;
5507;SDS011;2776;51.046;6.772;2023-08-20T14:10:00;6.32;;;4.57;;
5507;SDS011;2776;51.046;6.772;2023-08-20T14:12:28;6.00;;;4.43;;
5507;SDS011;2776;51.046;6.772;2023-08-20T14:14:55;4.85;;;4.43;;
5507;SDS011;2776;51.046;6.772;2023-08-20T14:17:22;7.38;;;4.70;;
5507;SDS011;2776;51.046;6.772;2023-08-20T14:19:48;5.55;;;4.95;;
5507;SDS011;2776;51.046;6.772;2023-08-20T14:22:15;7.82;;;4.95;;
5507;SDS011;2776;51.046;6.772;2023-08-20T14:24:42;5.50;;;4.93;;
5507;SDS011;2776;51.046;6.772;2023-08-20T14:27:10;7.57;;;5.93;;
5507;SDS011;2776;51.046;6.772;2023-08-20T14:29:37;6.20;;;5.60;;
5507;SDS011;2776;51.046;6.772;2023-08-20T14:32:04;6.65;;;5.60;;
5507;SDS011;2776;51.046;6.772;2023-08-20T14:34:31;5.88;;;5.40;;
5507;SDS011;2776;51.046;6.772;2023-08-20T14:36:57;6.45;;;5.85;;
5507;SDS011;2776;51.046;6.772;2023-08-20T14:39:24;6.18;;;5.32;;
5507;SDS011;2776;51.046;6.772;2023-08-20T14:41:51;6.35;;;5.50;;
5507;SDS011;2776;51.046;6.772;2023-08-20T14:44:19;7.10;;;5.30;;
5507;SDS011;2776;51.046;6.772;2023-08-20T14:46:46;6.10;;;5.50;;
5507;SDS011;2776;51.046;6.772;2023-08-20T14:49:13;5.15;;;4.75;;
5507;SDS011;2776;51.046;6.772;2023-08-20T14:51:39;10.02;;;5.85;;
5507;SDS011;2776;51.046;6.772;2023-08-20T14:54:06;7.05;;;5.00;;
5507;SDS011;2776;51.046;6.772;2023-08-20T14:56:33;6.03;;;5.40;;
5507;SDS011;2776;51.046;6.772;2023-08-20T14:58:59;7.22;;;5.47;;
5507;SDS011;2776;51.046;6.772;2023-08-20T15:01:28;6.35;;;5.22;;
5507;SDS011;2776;51.046;6.772;2023-08-20T15:03:54;6.20;;;4.80;;
5507;SDS011;2776;51.046;6.772;2023-08-20T15:06:21;6.20;;;5.60;;
5507;SDS011;2776;51.046;6.772;2023-08-20T15:08:49;6.90;;;5.15;;
5507;SDS011;2776;51.046;6.772;2023-08-20T15:11:16;5.90;;;4.72;;